CheckWX is a tool to help pilots better visualize weather data.  It is not intended as a substitute for an official pre-flight weather briefing.

07:19:43 UTC

SCVD METAR
Pichoy Airport
Valdivia, Chile
Current

20 mins ago

SCVD 180700Z AUTO 29005KT 9999 FEW016 SCT019 OVC024 08/08 Q1021
Observed
Sep-18 @ 07:00 UTC
Wind
  • 290° at 5 KTS
Visibility
10,000+ meters
Flight Rules
MVFR
Cloud Levels
  • Few at 1,600' AGL
  • Scattered at 1,900' AGL
  • Overcast at 2,400' AGL
Temperature
C / 46°F
Dewpoint
C / 46°F
Humidity
100%
Altimeter
30.15" Hg
Pressure
1020.92 hPa
Previous

1 hour ago

SCVD 180600Z AUTO 00000KT 9999 BKN019 BKN032 OVC036 06/06 Q1022
Observed
Sep-18 @ 06:00 UTC
Visibility
10,000+ meters
Flight Rules
MVFR
Cloud Levels
  • Broken at 1,900' AGL
  • Broken at 3,200' AGL
  • Overcast at 3,600' AGL
Temperature
C / 43°F
Dewpoint
C / 43°F
Humidity
100%
Altimeter
30.18" Hg
Pressure
1021.92 hPa
Previous

2 hours ago

SCVD 180500Z AUTO 10002KT 9999 BKN026 OVC033 07/07 Q1022
Observed
Sep-18 @ 05:00 UTC
Wind
  • 100° at 2 KTS
Visibility
10,000+ meters
Flight Rules
MVFR
Cloud Levels
  • Broken at 2,600' AGL
  • Overcast at 3,300' AGL
Temperature
C / 45°F
Dewpoint
C / 45°F
Humidity
100%
Altimeter
30.18" Hg
Pressure
1021.92 hPa